sensor_id;sensor_type;location;lat;lon;timestamp;temperature;humidity
66835;HTU21D;53743;51.100;5.874;2024-02-26T00:00:34;7.99;79.14
66835;HTU21D;53743;51.100;5.874;2024-02-26T00:01:35;7.99;77.14
66835;HTU21D;53743;51.100;5.874;2024-02-26T00:02:37;7.96;79.50
66835;HTU21D;53743;51.100;5.874;2024-02-26T00:03:38;7.93;78.57
66835;HTU21D;53743;51.100;5.874;2024-02-26T00:04:42;7.91;78.08
66835;HTU21D;53743;51.100;5.874;2024-02-26T00:05:45;7.90;78.67
66835;HTU21D;53743;51.100;5.874;2024-02-26T00:06:47;7.87;78.94
66835;HTU21D;53743;51.100;5.874;2024-02-26T00:07:50;7.91;78.51
66835;HTU21D;53743;51.100;5.874;2024-02-26T00:08:51;7.89;78.92
66835;HTU21D;53743;51.100;5.874;2024-02-26T00:09:53;7.88;78.43
66835;HTU21D;53743;51.100;5.874;2024-02-26T00:10:54;7.94;77.65
66835;HTU21D;53743;51.100;5.874;2024-02-26T00:11:56;7.94;77.59
66835;HTU21D;53743;51.100;5.874;2024-02-26T00:12:58;7.97;77.39
66835;HTU21D;53743;51.100;5.874;2024-02-26T00:14:00;7.90;78.60
66835;HTU21D;53743;51.100;5.874;2024-02-26T00:15:01;7.88;79.40
66835;HTU21D;53743;51.100;5.874;2024-02-26T00:16:03;7.87;78.37
66835;HTU21D;53743;51.100;5.874;2024-02-26T00:17:05;7.88;78.60
66835;HTU21D;53743;51.100;5.874;2024-02-26T00:18:07;7.85;79.01
66835;HTU21D;53743;51.100;5.874;2024-02-26T00:19:08;7.86;78.59
66835;HTU21D;53743;51.100;5.874;2024-02-26T00:20:11;7.85;79.57
66835;HTU21D;53743;51.100;5.874;2024-02-26T00:21:13;7.87;78.04
66835;HTU21D;53743;51.100;5.874;2024-02-26T00:22:15;7.90;78.68
66835;HTU21D;53743;51.100;5.874;2024-02-26T00:23:16;7.91;78.20
66835;HTU21D;53743;51.100;5.874;2024-02-26T00:24:18;7.88;79.15
66835;HTU21D;53743;51.100;5.874;2024-02-26T00:25:19;7.91;79.21
66835;HTU21D;53743;51.100;5.874;2024-02-26T00:26:21;7.89;79.54
66835;HTU21D;53743;51.100;5.874;2024-02-26T00:27:22;7.91;78.29
66835;HTU21D;53743;51.100;5.874;2024-02-26T00:28:24;7.92;79.13
66835;HTU21D;53743;51.100;5.874;2024-02-26T00:29:25;7.92;78.13
66835;HTU21D;53743;51.100;5.874;2024-02-26T00:30:26;7.89;79.58
66835;HTU21D;53743;51.100;5.874;2024-02-26T00:31:28;7.87;80.17
66835;HTU21D;53743;51.100;5.874;2024-02-26T00:32:29;7.86;79.51
66835;HTU21D;53743;51.100;5.874;2024-02-26T00:33:31;7.85;79.15
66835;HTU21D;53743;51.100;5.874;2024-02-26T00:34:32;7.88;79.32
66835;HTU21D;53743;51.100;5.874;2024-02-26T00:35:34;7.84;80.30
66835;HTU21D;53743;51.100;5.874;2024-02-26T00:36:36;7.86;79.88
66835;HTU21D;53743;51.100;5.874;2024-02-26T00:37:38;7.88;79.18
66835;HTU21D;53743;51.100;5.874;2024-02-26T00:38:40;7.85;80.04
66835;HTU21D;53743;51.100;5.874;2024-02-26T00:39:43;7.85;79.40
66835;HTU21D;53743;51.100;5.874;2024-02-26T00:40:45;7.83;80.73
66835;HTU21D;53743;51.100;5.874;2024-02-26T00:41:47;7.86;79.11
66835;HTU21D;53743;51.100;5.874;2024-02-26T00:42:48;7.86;79.56
66835;HTU21D;53743;51.100;5.874;2024-02-26T00:43:50;7.84;80.66
66835;HTU21D;53743;51.100;5.874;2024-02-26T00:44:51;7.79;80.20
66835;HTU21D;53743;51.100;5.874;2024-02-26T00:45:52;7.81;80.59
66835;HTU21D;53743;51.100;5.874;2024-02-26T00:46:54;7.75;0.00
66835;HTU21D;53743;51.100;5.874;2024-02-26T00:47:55;7.69;83.27
66835;HTU21D;53743;51.100;5.874;2024-02-26T00:48:57;7.73;81.47
66835;HTU21D;53743;51.100;5.874;2024-02-26T00:49:58;7.75;81.77
66835;HTU21D;53743;51.100;5.874;2024-02-26T00:51:00;7.71;81.83
66835;HTU21D;53743;51.100;5.874;2024-02-26T00:52:03;7.65;82.55
66835;HTU21D;53743;51.100;5.874;2024-02-26T00:53:05;7.65;81.71
66835;HTU21D;53743;51.100;5.874;2024-02-26T00:54:06;7.64;84.26
66835;HTU21D;53743;51.100;5.874;2024-02-26T00:55:09;7.59;84.25
66835;HTU21D;53743;51.100;5.874;2024-02-26T00:56:10;7.62;82.68
66835;HTU21D;53743;51.100;5.874;2024-02-26T00:57:12;7.68;81.74
66835;HTU21D;53743;51.100;5.874;2024-02-26T00:58:13;7.62;83.61
66835;HTU21D;53743;51.100;5.874;2024-02-26T00:59:14;7.60;82.95
66835;HTU21D;53743;51.100;5.874;2024-02-26T01:00:16;7.61;83.42
66835;HTU21D;53743;51.100;5.874;2024-02-26T01:01:18;7.61;82.57
66835;HTU21D;53743;51.100;5.874;2024-02-26T01:02:20;7.60;83.28
66835;HTU21D;53743;51.100;5.874;2024-02-26T01:03:21;7.57;83.36
66835;HTU21D;53743;51.100;5.874;2024-02-26T01:04:23;7.59;83.32
66835;HTU21D;53743;51.100;5.874;2024-02-26T01:05:24;7.58;84.10
66835;HTU21D;53743;51.100;5.874;2024-02-26T01:06:26;7.55;84.28
66835;HTU21D;53743;51.100;5.874;2024-02-26T01:07:28;7.57;84.50
66835;HTU21D;53743;51.100;5.874;2024-02-26T01:08:34;7.53;84.52
66835;HTU21D;53743;51.100;5.874;2024-02-26T01:09:36;7.53;84.81
66835;HTU21D;53743;51.100;5.874;2024-02-26T01:10:38;7.60;84.33
66835;HTU21D;53743;51.100;5.874;2024-02-26T01:11:39;7.53;85.76
66835;HTU21D;53743;51.100;5.874;2024-02-26T01:12:41;7.59;84.37
66835;HTU21D;53743;51.100;5.874;2024-02-26T01:13:42;7.57;85.27
66835;HTU21D;53743;51.100;5.874;2024-02-26T01:14:44;7.56;85.38
66835;HTU21D;53743;51.100;5.874;2024-02-26T01:15:45;7.60;84.84
66835;HTU21D;53743;51.100;5.874;2024-02-26T01:16:47;7.59;84.93
66835;HTU21D;53743;51.100;5.874;2024-02-26T01:17:48;7.55;86.36
66835;HTU21D;53743;51.100;5.874;2024-02-26T01:18:49;7.49;86.83
66835;HTU21D;53743;51.100;5.874;2024-02-26T01:19:51;7.50;86.07
66835;HTU21D;53743;51.100;5.874;2024-02-26T01:20:52;7.50;86.16
66835;HTU21D;53743;51.100;5.874;2024-02-26T01:21:54;7.45;87.45
66835;HTU21D;53743;51.100;5.874;2024-02-26T01:22:57;7.42;86.98
66835;HTU21D;53743;51.100;5.874;2024-02-26T01:23:59;7.40;87.62
66835;HTU21D;53743;51.100;5.874;2024-02-26T01:25:00;7.43;86.75
66835;HTU21D;53743;51.100;5.874;2024-02-26T01:26:02;7.46;86.39
66835;HTU21D;53743;51.100;5.874;2024-02-26T01:27:04;7.44;86.68
66835;HTU21D;53743;51.100;5.874;2024-02-26T01:28:07;7.44;86.54
66835;HTU21D;53743;51.100;5.874;2024-02-26T01:29:08;7.41;86.97
66835;HTU21D;53743;51.100;5.874;2024-02-26T01:30:10;7.41;87.69
66835;HTU21D;53743;51.100;5.874;2024-02-26T01:31:12;7.38;87.82
66835;HTU21D;53743;51.100;5.874;2024-02-26T01:32:13;7.40;87.54
66835;HTU21D;53743;51.100;5.874;2024-02-26T01:33:15;7.39;87.69
66835;HTU21D;53743;51.100;5.874;2024-02-26T01:34:16;7.37;88.20
66835;HTU21D;53743;51.100;5.874;2024-02-26T01:35:19;7.37;87.80
66835;HTU21D;53743;51.100;5.874;2024-02-26T01:36:20;7.34;88.91
66835;HTU21D;53743;51.100;5.874;2024-02-26T01:37:22;7.32;88.87
66835;HTU21D;53743;51.100;5.874;2024-02-26T01:38:25;7.33;88.95
66835;HTU21D;53743;51.100;5.874;2024-02-26T01:39:26;7.34;88.46
66835;HTU21D;53743;51.100;5.874;2024-02-26T01:40:29;7.37;89.22
66835;HTU21D;53743;51.100;5.874;2024-02-26T01:41:30;7.40;88.01
66835;HTU21D;53743;51.100;5.874;2024-02-26T01:42:32;7.38;88.45
66835;HTU21D;53743;51.100;5.874;2024-02-26T01:43:33;7.35;88.89
66835;HTU21D;53743;51.100;5.874;2024-02-26T01:44:35;7.33;88.98
66835;HTU21D;53743;51.100;5.874;2024-02-26T01:45:36;7.38;88.06
66835;HTU21D;53743;51.100;5.874;2024-02-26T01:46:38;7.40;88.14
66835;HTU21D;53743;51.100;5.874;2024-02-26T01:47:39;7.41;88.10
66835;HTU21D;53743;51.100;5.874;2024-02-26T01:48:43;7.38;88.09
66835;HTU21D;53743;51.100;5.874;2024-02-26T01:49:47;7.37;89.28
66835;HTU21D;53743;51.100;5.874;2024-02-26T01:50:49;7.37;88.77
66835;HTU21D;53743;51.100;5.874;2024-02-26T01:51:50;7.25;90.95
66835;HTU21D;53743;51.100;5.874;2024-02-26T01:52:54;7.25;89.95
66835;HTU21D;53743;51.100;5.874;2024-02-26T01:53:58;7.27;89.70
66835;HTU21D;53743;51.100;5.874;2024-02-26T01:55:01;7.29;89.30
66835;HTU21D;53743;51.100;5.874;2024-02-26T01:56:04;7.34;89.21
66835;HTU21D;53743;51.100;5.874;2024-02-26T01:57:08;7.32;89.39
66835;HTU21D;53743;51.100;5.874;2024-02-26T01:58:10;7.35;89.23
66835;HTU21D;53743;51.100;5.874;2024-02-26T01:59:13;7.32;89.63
66835;HTU21D;53743;51.100;5.874;2024-02-26T02:00:16;7.32;89.40
66835;HTU21D;53743;51.100;5.874;2024-02-26T02:01:21;7.32;89.49
66835;HTU21D;53743;51.100;5.874;2024-02-26T02:02:27;7.24;91.05
66835;HTU21D;53743;51.100;5.874;2024-02-26T02:03:29;7.25;90.23
66835;HTU21D;53743;51.100;5.874;2024-02-26T02:04:32;7.20;91.25
66835;HTU21D;53743;51.100;5.874;2024-02-26T02:05:33;7.22;90.73
66835;HTU21D;53743;51.100;5.874;2024-02-26T02:06:45;7.19;91.15
66835;HTU21D;53743;51.100;5.874;2024-02-26T02:07:47;7.18;91.69
66835;HTU21D;53743;51.100;5.874;2024-02-26T02:08:49;7.16;91.56
66835;HTU21D;53743;51.100;5.874;2024-02-26T02:09:53;7.18;91.48
66835;HTU21D;53743;51.100;5.874;2024-02-26T02:10:55;7.20;91.18
66835;HTU21D;53743;51.100;5.874;2024-02-26T02:11:58;7.25;90.82
66835;HTU21D;53743;51.100;5.874;2024-02-26T02:13:00;7.23;91.08
66835;HTU21D;53743;51.100;5.874;2024-02-26T02:14:01;7.16;91.87
66835;HTU21D;53743;51.100;5.874;2024-02-26T02:15:04;7.13;92.15
66835;HTU21D;53743;51.100;5.874;2024-02-26T02:16:06;7.09;93.36
66835;HTU21D;53743;51.100;5.874;2024-02-26T02:17:07;7.04;93.54
66835;HTU21D;53743;51.100;5.874;2024-02-26T02:18:09;7.11;92.37
66835;HTU21D;53743;51.100;5.874;2024-02-26T02:19:10;7.12;92.03
66835;HTU21D;53743;51.100;5.874;2024-02-26T02:20:16;7.10;92.31
66835;HTU21D;53743;51.100;5.874;2024-02-26T02:21:19;7.09;92.27
66835;HTU21D;53743;51.100;5.874;2024-02-26T02:22:21;7.09;92.74
66835;HTU21D;53743;51.100;5.874;2024-02-26T02:23:22;7.05;93.04
66835;HTU21D;53743;51.100;5.874;2024-02-26T02:24:24;7.02;93.33
66835;HTU21D;53743;51.100;5.874;2024-02-26T02:25:25;7.08;92.21
66835;HTU21D;53743;51.100;5.874;2024-02-26T02:26:27;7.05;93.65
66835;HTU21D;53743;51.100;5.874;2024-02-26T02:27:29;7.01;93.24
66835;HTU21D;53743;51.100;5.874;2024-02-26T02:28:32;6.99;93.33
66835;HTU21D;53743;51.100;5.874;2024-02-26T02:29:33;6.89;95.55
66835;HTU21D;53743;51.100;5.874;2024-02-26T02:30:35;6.87;95.46
66835;HTU21D;53743;51.100;5.874;2024-02-26T02:31:38;6.90;94.66
66835;HTU21D;53743;51.100;5.874;2024-02-26T02:32:41;6.96;94.19
66835;HTU21D;53743;51.100;5.874;2024-02-26T02:33:43;6.99;93.89
66835;HTU21D;53743;51.100;5.874;2024-02-26T02:34:46;6.91;95.44
66835;HTU21D;53743;51.100;5.874;2024-02-26T02:35:47;6.91;94.99
66835;HTU21D;53743;51.100;5.874;2024-02-26T02:36:53;6.86;96.07
66835;HTU21D;53743;51.100;5.874;2024-02-26T02:37:56;6.89;95.39
66835;HTU21D;53743;51.100;5.874;2024-02-26T02:38:59;6.88;95.75
66835;HTU21D;53743;51.100;5.874;2024-02-26T02:40:00;6.89;95.58
66835;HTU21D;53743;51.100;5.874;2024-02-26T02:41:02;6.94;94.89
66835;HTU21D;53743;51.100;5.874;2024-02-26T02:42:03;6.97;94.63
66835;HTU21D;53743;51.100;5.874;2024-02-26T02:43:05;6.93;95.15
66835;HTU21D;53743;51.100;5.874;2024-02-26T02:44:06;6.95;94.80
66835;HTU21D;53743;51.100;5.874;2024-02-26T02:45:09;6.97;94.67
66835;HTU21D;53743;51.100;5.874;2024-02-26T02:46:10;6.94;95.15
66835;HTU21D;53743;51.100;5.874;2024-02-26T02:47:13;6.94;95.37
66835;HTU21D;53743;51.100;5.874;2024-02-26T02:48:14;6.97;94.71
66835;HTU21D;53743;51.100;5.874;2024-02-26T02:49:16;6.97;94.41
66835;HTU21D;53743;51.100;5.874;2024-02-26T02:50:17;6.96;95.13
66835;HTU21D;53743;51.100;5.874;2024-02-26T02:51:19;7.00;94.78
66835;HTU21D;53743;51.100;5.874;2024-02-26T02:52:21;6.97;95.19
66835;HTU21D;53743;51.100;5.874;2024-02-26T02:53:23;6.99;94.74
66835;HTU21D;53743;51.100;5.874;2024-02-26T02:54:24;6.99;95.03
66835;HTU21D;53743;51.100;5.874;2024-02-26T02:55:25;6.99;94.98
66835;HTU21D;53743;51.100;5.874;2024-02-26T02:56:27;6.97;95.33
66835;HTU21D;53743;51.100;5.874;2024-02-26T02:57:29;6.98;95.38
66835;HTU21D;53743;51.100;5.874;2024-02-26T02:58:32;7.02;94.65
66835;HTU21D;53743;51.100;5.874;2024-02-26T02:59:33;7.01;94.78
66835;HTU21D;53743;51.100;5.874;2024-02-26T03:00:35;7.07;94.51
66835;HTU21D;53743;51.100;5.874;2024-02-26T03:01:36;7.04;94.59
66835;HTU21D;53743;51.100;5.874;2024-02-26T03:02:38;6.99;95.66
66835;HTU21D;53743;51.100;5.874;2024-02-26T03:03:39;6.99;95.45
66835;HTU21D;53743;51.100;5.874;2024-02-26T03:04:41;7.00;95.36
66835;HTU21D;53743;51.100;5.874;2024-02-26T03:05:42;7.03;94.99
66835;HTU21D;53743;51.100;5.874;2024-02-26T03:06:44;7.05;94.85
66835;HTU21D;53743;51.100;5.874;2024-02-26T03:07:46;7.11;94.53
66835;HTU21D;53743;51.100;5.874;2024-02-26T03:08:48;7.11;94.47
66835;HTU21D;53743;51.100;5.874;2024-02-26T03:09:49;7.10;94.59
66835;HTU21D;53743;51.100;5.874;2024-02-26T03:10:51;7.07;95.04
66835;HTU21D;53743;51.100;5.874;2024-02-26T03:11:52;7.09;95.29
66835;HTU21D;53743;51.100;5.874;2024-02-26T03:12:54;7.10;94.74
66835;HTU21D;53743;51.100;5.874;2024-02-26T03:13:56;7.03;95.44
66835;HTU21D;53743;51.100;5.874;2024-02-26T03:14:58;7.07;95.08
66835;HTU21D;53743;51.100;5.874;2024-02-26T03:16:04;7.05;95.27
66835;HTU21D;53743;51.100;5.874;2024-02-26T03:17:07;7.07;95.26
66835;HTU21D;53743;51.100;5.874;2024-02-26T03:18:08;7.01;96.29
66835;HTU21D;53743;51.100;5.874;2024-02-26T03:19:10;7.01;96.13
66835;HTU21D;53743;51.100;5.874;2024-02-26T03:20:11;7.00;96.15
66835;HTU21D;53743;51.100;5.874;2024-02-26T03:21:13;7.07;95.59
66835;HTU21D;53743;51.100;5.874;2024-02-26T03:22:14;7.07;95.47
66835;HTU21D;53743;51.100;5.874;2024-02-26T03:23:17;7.07;95.60
66835;HTU21D;53743;51.100;5.874;2024-02-26T03:24:18;7.05;95.49
66835;HTU21D;53743;51.100;5.874;2024-02-26T03:25:20;7.05;95.79
66835;HTU21D;53743;51.100;5.874;2024-02-26T03:26:21;7.09;95.69
66835;HTU21D;53743;51.100;5.874;2024-02-26T03:27:22;7.05;96.07
66835;HTU21D;53743;51.100;5.874;2024-02-26T03:28:24;7.00;96.69
66835;HTU21D;53743;51.100;5.874;2024-02-26T03:29:25;7.03;96.04
66835;HTU21D;53743;51.100;5.874;2024-02-26T03:30:27;7.11;95.57
66835;HTU21D;53743;51.100;5.874;2024-02-26T03:31:28;7.11;95.62
66835;HTU21D;53743;51.100;5.874;2024-02-26T03:32:30;7.09;95.54
66835;HTU21D;53743;51.100;5.874;2024-02-26T03:33:31;7.08;95.69
66835;HTU21D;53743;51.100;5.874;2024-02-26T03:34:33;7.02;96.13
66835;HTU21D;53743;51.100;5.874;2024-02-26T03:35:34;7.11;95.85
66835;HTU21D;53743;51.100;5.874;2024-02-26T03:36:36;7.10;95.74
66835;HTU21D;53743;51.100;5.874;2024-02-26T03:37:37;7.02;96.19
66835;HTU21D;53743;51.100;5.874;2024-02-26T03:38:40;7.03;96.10
66835;HTU21D;53743;51.100;5.874;2024-02-26T03:39:42;7.07;95.81
66835;HTU21D;53743;51.100;5.874;2024-02-26T03:40:42;7.05;96.03
66835;HTU21D;53743;51.100;5.874;2024-02-26T03:41:44;7.11;95.88
66835;HTU21D;53743;51.100;5.874;2024-02-26T03:42:45;7.12;95.63
66835;HTU21D;53743;51.100;5.874;2024-02-26T03:43:47;7.13;95.77
66835;HTU21D;53743;51.100;5.874;2024-02-26T03:44:48;7.10;96.37
66835;HTU21D;53743;51.100;5.874;2024-02-26T03:45:49;7.11;95.82
66835;HTU21D;53743;51.100;5.874;2024-02-26T03:46:51;7.12;96.23
66835;HTU21D;53743;51.100;5.874;2024-02-26T03:47:52;7.14;96.04
66835;HTU21D;53743;51.100;5.874;2024-02-26T03:48:54;7.15;96.00
66835;HTU21D;53743;51.100;5.874;2024-02-26T03:49:55;7.14;95.67
66835;HTU21D;53743;51.100;5.874;2024-02-26T03:51:00;7.16;95.76
66835;HTU21D;53743;51.100;5.874;2024-02-26T03:52:01;7.16;95.73
66835;HTU21D;53743;51.100;5.874;2024-02-26T03:53:02;7.10;95.86
66835;HTU21D;53743;51.100;5.874;2024-02-26T03:54:05;7.13;97.37
66835;HTU21D;53743;51.100;5.874;2024-02-26T03:55:07;7.13;100.75
66835;HTU21D;53743;51.100;5.874;2024-02-26T03:56:11;7.05;100.70
66835;HTU21D;53743;51.100;5.874;2024-02-26T03:57:12;7.01;99.61
66835;HTU21D;53743;51.100;5.874;2024-02-26T03:58:14;7.04;98.45
66835;HTU21D;53743;51.100;5.874;2024-02-26T03:59:15;6.98;99.09
66835;HTU21D;53743;51.100;5.874;2024-02-26T04:00:18;7.02;98.44
66835;HTU21D;53743;51.100;5.874;2024-02-26T04:01:20;7.01;97.75
66835;HTU21D;53743;51.100;5.874;2024-02-26T04:02:22;6.98;97.91
66835;HTU21D;53743;51.100;5.874;2024-02-26T04:03:23;6.96;98.42
66835;HTU21D;53743;51.100;5.874;2024-02-26T04:04:26;6.95;98.35
66835;HTU21D;53743;51.100;5.874;2024-02-26T04:05:26;7.03;97.45
66835;HTU21D;53743;51.100;5.874;2024-02-26T04:06:28;6.98;97.55
66835;HTU21D;53743;51.100;5.874;2024-02-26T04:07:29;6.91;98.56
66835;HTU21D;53743;51.100;5.874;2024-02-26T04:08:31;6.90;98.72
66835;HTU21D;53743;51.100;5.874;2024-02-26T04:09:34;6.99;97.74
66835;HTU21D;53743;51.100;5.874;2024-02-26T04:10:36;6.97;98.08
66835;HTU21D;53743;51.100;5.874;2024-02-26T04:11:39;6.95;98.22
66835;HTU21D;53743;51.100;5.874;2024-02-26T04:12:42;6.98;98.00
66835;HTU21D;53743;51.100;5.874;2024-02-26T04:13:44;7.00;97.52
66835;HTU21D;53743;51.100;5.874;2024-02-26T04:14:49;6.96;98.13
66835;HTU21D;53743;51.100;5.874;2024-02-26T04:15:50;6.97;97.82
66835;HTU21D;53743;51.100;5.874;2024-02-26T04:16:52;6.97;97.97
66835;HTU21D;53743;51.100;5.874;2024-02-26T04:17:55;6.94;98.23
66835;HTU21D;53743;51.100;5.874;2024-02-26T04:18:56;6.97;97.90
66835;HTU21D;53743;51.100;5.874;2024-02-26T04:19:58;6.96;97.78
66835;HTU21D;53743;51.100;5.874;2024-02-26T04:20:59;6.97;97.92
66835;HTU21D;53743;51.100;5.874;2024-02-26T04:22:01;6.93;98.37
66835;HTU21D;53743;51.100;5.874;2024-02-26T04:23:03;6.99;97.78
66835;HTU21D;53743;51.100;5.874;2024-02-26T04:24:05;6.93;98.45
66835;HTU21D;53743;51.100;5.874;2024-02-26T04:25:08;6.91;98.57
66835;HTU21D;53743;51.100;5.874;2024-02-26T04:26:10;6.95;98.16
66835;HTU21D;53743;51.100;5.874;2024-02-26T04:27:11;6.91;98.62
66835;HTU21D;53743;51.100;5.874;2024-02-26T04:28:13;6.94;98.20
66835;HTU21D;53743;51.100;5.874;2024-02-26T04:29:14;6.88;99.03
66835;HTU21D;53743;51.100;5.874;2024-02-26T04:30:16;6.94;98.41
66835;HTU21D;53743;51.100;5.874;2024-02-26T04:31:18;6.94;98.19
66835;HTU21D;53743;51.100;5.874;2024-02-26T04:32:20;6.93;98.72
66835;HTU21D;53743;51.100;5.874;2024-02-26T04:33:21;6.99;97.88
66835;HTU21D;53743;51.100;5.874;2024-02-26T04:34:23;7.04;97.29
66835;HTU21D;53743;51.100;5.874;2024-02-26T04:35:24;7.03;97.59
66835;HTU21D;53743;51.100;5.874;2024-02-26T04:36:25;6.98;97.82
66835;HTU21D;53743;51.100;5.874;2024-02-26T04:37:27;7.00;97.58
66835;HTU21D;53743;51.100;5.874;2024-02-26T04:38:31;6.99;97.98
66835;HTU21D;53743;51.100;5.874;2024-02-26T04:39:33;6.98;98.13
66835;HTU21D;53743;51.100;5.874;2024-02-26T04:40:35;6.96;97.95
66835;HTU21D;53743;51.100;5.874;2024-02-26T04:41:37;6.99;97.87
66835;HTU21D;53743;51.100;5.874;2024-02-26T04:42:38;7.04;97.45
66835;HTU21D;53743;51.100;5.874;2024-02-26T04:43:40;7.02;97.29
66835;HTU21D;53743;51.100;5.874;2024-02-26T04:44:42;7.00;97.51
66835;HTU21D;53743;51.100;5.874;2024-02-26T04:45:43;7.07;97.44
66835;HTU21D;53743;51.100;5.874;2024-02-26T04:46:44;7.08;96.98
66835;HTU21D;53743;51.100;5.874;2024-02-26T04:47:46;7.03;97.31
66835;HTU21D;53743;51.100;5.874;2024-02-26T04:48:47;7.03;97.18
66835;HTU21D;53743;51.100;5.874;2024-02-26T04:49:50;6.99;98.02
66835;HTU21D;53743;51.100;5.874;2024-02-26T04:50:51;7.02;97.35
66835;HTU21D;53743;51.100;5.874;2024-02-26T04:51:53;6.97;98.01
66835;HTU21D;53743;51.100;5.874;2024-02-26T04:52:54;6.95;98.21
66835;HTU21D;53743;51.100;5.874;2024-02-26T04:53:56;6.93;98.21
66835;HTU21D;53743;51.100;5.874;2024-02-26T04:54:57;6.96;98.05
66835;HTU21D;53743;51.100;5.874;2024-02-26T04:56:02;6.89;98.23
66835;HTU21D;53743;51.100;5.874;2024-02-26T04:57:03;6.90;98.42
66835;HTU21D;53743;51.100;5.874;2024-02-26T04:58:05;6.93;98.07
66835;HTU21D;53743;51.100;5.874;2024-02-26T04:59:06;6.93;97.91
66835;HTU21D;53743;51.100;5.874;2024-02-26T05:00:10;6.95;97.90
66835;HTU21D;53743;51.100;5.874;2024-02-26T05:01:12;6.98;97.52
66835;HTU21D;53743;51.100;5.874;2024-02-26T05:02:14;6.89;98.07
66835;HTU21D;53743;51.100;5.874;2024-02-26T05:03:15;6.95;97.73
66835;HTU21D;53743;51.100;5.874;2024-02-26T05:04:16;6.90;98.05
66835;HTU21D;53743;51.100;5.874;2024-02-26T05:05:18;6.86;98.55
66835;HTU21D;53743;51.100;5.874;2024-02-26T05:06:19;6.95;97.33
66835;HTU21D;53743;51.100;5.874;2024-02-26T05:07:21;6.90;97.80
66835;HTU21D;53743;51.100;5.874;2024-02-26T05:08:22;6.84;98.30
66835;HTU21D;53743;51.100;5.874;2024-02-26T05:09:24;6.80;98.55
66835;HTU21D;53743;51.100;5.874;2024-02-26T05:10:25;6.86;98.07
66835;HTU21D;53743;51.100;5.874;2024-02-26T05:11:28;6.89;97.53
66835;HTU21D;53743;51.100;5.874;2024-02-26T05:12:29;6.87;97.80
66835;HTU21D;53743;51.100;5.874;2024-02-26T05:13:31;6.86;97.95
66835;HTU21D;53743;51.100;5.874;2024-02-26T05:14:32;6.83;98.15
66835;HTU21D;53743;51.100;5.874;2024-02-26T05:15:35;6.84;97.94
66835;HTU21D;53743;51.100;5.874;2024-02-26T05:16:36;6.87;97.61
66835;HTU21D;53743;51.100;5.874;2024-02-26T05:17:38;6.84;97.94
66835;HTU21D;53743;51.100;5.874;2024-02-26T05:18:39;6.84;97.70
66835;HTU21D;53743;51.100;5.874;2024-02-26T05:19:41;6.89;97.45
66835;HTU21D;53743;51.100;5.874;2024-02-26T05:20:42;6.89;97.33
66835;HTU21D;53743;51.100;5.874;2024-02-26T05:21:43;6.89;96.83
66835;HTU21D;53743;51.100;5.874;2024-02-26T05:22:45;6.85;97.10
66835;HTU21D;53743;51.100;5.874;2024-02-26T05:23:46;6.81;97.82
66835;HTU21D;53743;51.100;5.874;2024-02-26T05:24:48;6.81;97.55
66835;HTU21D;53743;51.100;5.874;2024-02-26T05:25:49;6.78;97.98
66835;HTU21D;53743;51.100;5.874;2024-02-26T05:26:53;6.84;97.23
66835;HTU21D;53743;51.100;5.874;2024-02-26T05:27:55;6.83;97.08
66835;HTU21D;53743;51.100;5.874;2024-02-26T05:28:56;6.83;97.24
66835;HTU21D;53743;51.100;5.874;2024-02-26T05:30:00;6.82;97.28
66835;HTU21D;53743;51.100;5.874;2024-02-26T05:31:01;6.81;97.51
66835;HTU21D;53743;51.100;5.874;2024-02-26T05:32:05;6.75;97.90
66835;HTU21D;53743;51.100;5.874;2024-02-26T05:33:06;6.74;98.25
66835;HTU21D;53743;51.100;5.874;2024-02-26T05:34:08;6.81;97.71
66835;HTU21D;53743;51.100;5.874;2024-02-26T05:35:09;6.83;97.65
66835;HTU21D;53743;51.100;5.874;2024-02-26T05:36:18;6.87;97.22
66835;HTU21D;53743;51.100;5.874;2024-02-26T05:37:21;6.84;97.46
66835;HTU21D;53743;51.100;5.874;2024-02-26T05:38:23;6.79;97.60
66835;HTU21D;53743;51.100;5.874;2024-02-26T05:39:25;6.81;97.59
66835;HTU21D;53743;51.100;5.874;2024-02-26T05:40:25;6.78;97.66
66835;HTU21D;53743;51.100;5.874;2024-02-26T05:41:27;6.73;98.00
66835;HTU21D;53743;51.100;5.874;2024-02-26T05:42:30;6.75;97.87
66835;HTU21D;53743;51.100;5.874;2024-02-26T05:43:32;6.73;98.05
66835;HTU21D;53743;51.100;5.874;2024-02-26T05:44:33;6.72;98.32
66835;HTU21D;53743;51.100;5.874;2024-02-26T05:45:35;6.71;98.48
66835;HTU21D;53743;51.100;5.874;2024-02-26T05:46:36;6.76;98.01
66835;HTU21D;53743;51.100;5.874;2024-02-26T05:47:38;6.76;98.00
66835;HTU21D;53743;51.100;5.874;2024-02-26T05:48:43;6.75;98.07
66835;HTU21D;53743;51.100;5.874;2024-02-26T05:49:44;6.71;98.20
66835;HTU21D;53743;51.100;5.874;2024-02-26T05:50:45;6.74;97.94
66835;HTU21D;53743;51.100;5.874;2024-02-26T05:51:47;6.70;98.54
66835;HTU21D;53743;51.100;5.874;2024-02-26T05:52:49;6.75;98.16
66835;HTU21D;53743;51.100;5.874;2024-02-26T05:53:50;6.74;98.15
66835;HTU21D;53743;51.100;5.874;2024-02-26T05:54:54;6.72;97.97
66835;HTU21D;53743;51.100;5.874;2024-02-26T05:55:55;6.76;98.17
66835;HTU21D;53743;51.100;5.874;2024-02-26T05:56:57;6.78;97.39
66835;HTU21D;53743;51.100;5.874;2024-02-26T05:57:59;6.71;98.13
66835;HTU21D;53743;51.100;5.874;2024-02-26T05:59:01;6.69;98.39
66835;HTU21D;53743;51.100;5.874;2024-02-26T06:00:03;6.70;97.75
66835;HTU21D;53743;51.100;5.874;2024-02-26T06:01:13;6.71;97.61
66835;HTU21D;53743;51.100;5.874;2024-02-26T06:02:15;6.69;98.23
66835;HTU21D;53743;51.100;5.874;2024-02-26T06:03:17;6.70;97.81
66835;HTU21D;53743;51.100;5.874;2024-02-26T06:04:18;6.69;97.76
66835;HTU21D;53743;51.100;5.874;2024-02-26T06:05:23;6.68;98.03
66835;HTU21D;53743;51.100;5.874;2024-02-26T06:06:24;6.67;97.76
66835;HTU21D;53743;51.100;5.874;2024-02-26T06:07:26;6.63;98.56
66835;HTU21D;53743;51.100;5.874;2024-02-26T06:08:27;6.61;98.56
66835;HTU21D;53743;51.100;5.874;2024-02-26T06:09:29;6.56;99.00
66835;HTU21D;53743;51.100;5.874;2024-02-26T06:10:30;6.52;99.56
66835;HTU21D;53743;51.100;5.874;2024-02-26T06:11:31;6.49;99.90
66835;HTU21D;53743;51.100;5.874;2024-02-26T06:12:35;6.48;99.71
66835;HTU21D;53743;51.100;5.874;2024-02-26T06:13:38;6.50;99.38
66835;HTU21D;53743;51.100;5.874;2024-02-26T06:14:39;6.50;99.29
66835;HTU21D;53743;51.100;5.874;2024-02-26T06:15:41;6.50;99.62
66835;HTU21D;53743;51.100;5.874;2024-02-26T06:16:42;6.50;99.55
66835;HTU21D;53743;51.100;5.874;2024-02-26T06:17:44;6.51;99.51
66835;HTU21D;53743;51.100;5.874;2024-02-26T06:18:45;6.49;99.52
66835;HTU21D;53743;51.100;5.874;2024-02-26T06:19:47;6.43;99.87
66835;HTU21D;53743;51.100;5.874;2024-02-26T06:20:48;6.45;99.97
66835;HTU21D;53743;51.100;5.874;2024-02-26T06:21:49;6.43;100.03
66835;HTU21D;53743;51.100;5.874;2024-02-26T06:22:51;6.43;99.93
66835;HTU21D;53743;51.100;5.874;2024-02-26T06:23:53;6.41;100.07
66835;HTU21D;53743;51.100;5.874;2024-02-26T06:24:54;6.41;100.33
66835;HTU21D;53743;51.100;5.874;2024-02-26T06:25:56;6.40;100.27
66835;HTU21D;53743;51.100;5.874;2024-02-26T06:26:57;6.39;100.79
66835;HTU21D;53743;51.100;5.874;2024-02-26T06:27:59;6.35;100.93
66835;HTU21D;53743;51.100;5.874;2024-02-26T06:29:01;6.39;100.46
66835;HTU21D;53743;51.100;5.874;2024-02-26T06:30:04;6.38;100.31
66835;HTU21D;53743;51.100;5.874;2024-02-26T06:31:06;6.46;99.88